KTYQ Airport Information

Runway Information
Runway 18 Length 5500 ft width 100 ft
Elevation 922 ft Threshold ft Heading 179
Runway 36 Length 5500 ft Width 100 ft
Elevation 922 ft Threshold 157 ft Heading 359
Airport Frequencies
Type A/D Name APP/DEP Frequency 124.65 MHZ
Type AWOS Name AWOS 3 Frequency 120.725 MHZ
Type UNIC Name CTAF/UNICO Frequency 123.05 MHZ
Airport Navaids
Airport Weather Information & NOTAM
ADDS - METARS form results

(1430 UTC 05 October 2022)
Data provider http://aviationweather.gov/metar/data/
 
METAR text: KTYQ 051415Z AUTO 00000KT 10SM CLR 16/06 A3018 RMK AO2 T01550055
Conditions at: KTYQ (INDIANAPOLIS EXC, IN, US) observed 1415 UTC 05 October 2022
Temperature: 15.5°C (60°F)
Dewpoint: 5.5°C (42°F) [RH = 51%]
Pressure (altimeter): 30.18 inches Hg (1022.1 mb)
Winds: calm
Visibility: 10 or more miles (16+ km)
Ceiling: at least 12,000 feet AGL
Clouds: sky clear below 12,000 feet AGL
Weather: automated observation with no human augmentation;
there may or may not be significant weather present at this time

METAR text: KTYQ 051355Z AUTO 00000KT 10SM CLR 14/06 A3017 RMK AO2 T01390062
Conditions at: KTYQ (INDIANAPOLIS EXC, IN, US) observed 1355 UTC 05 October 2022
Temperature: 13.9°C (57°F)
Dewpoint: 6.2°C (43°F) [RH = 60%]
Pressure (altimeter): 30.17 inches Hg (1021.8 mb)
Winds: calm
Visibility: 10 or more miles (16+ km)
Ceiling: at least 12,000 feet AGL
Clouds: sky clear below 12,000 feet AGL
Weather: automated observation with no human augmentation;
there may or may not be significant weather present at this time

METAR text: KTYQ 051335Z AUTO 00000KT 10SM CLR 11/07 A3017 RMK AO2 T01140068
Conditions at: KTYQ (INDIANAPOLIS EXC, IN, US) observed 1335 UTC 05 October 2022
Temperature: 11.4°C (53°F)
Dewpoint: 6.8°C (44°F) [RH = 73%]
Pressure (altimeter): 30.17 inches Hg (1021.8 mb)
Winds: calm
Visibility: 10 or more miles (16+ km)
Ceiling: at least 12,000 feet AGL
Clouds: sky clear below 12,000 feet AGL
Weather: automated observation with no human augmentation;
there may or may not be significant weather present at this time